Time;durP1;ratioP1;P1;durP2;ratioP2;P2;SDS_P1;SDS_P2;PMS_P1;PMS_P2;Temp;Humidity;BMP_temperature;BMP_pressure;BME280_temperature;BME280_humidity;BME280_pressure;Samples;Min_cycle;Max_cycle;Signal;HPM_P1;HPM_P2
2021/03/02 00:01:29;;;;;;;42.05;17.25;;;;;;;-0.67;76.90;100880.19;1730566;80;21179;-83
2021/03/02 00:48:17;;;;;;;45.98;17.27;;;;;;;-0.98;77.93;100874.83;1721001;79;21240;31
2021/03/02 04:47:20;;;;;;;30.15;11.60;;;;;;;-2.54;80.95;100889.97;1718777;79;21232;-82
2021/03/02 04:53:47;;;;;;;33.67;11.63;;;;;;;-2.60;82.71;100879.03;1694388;79;22635;31
2021/03/02 05:03:47;;;;;;;30.90;11.53;;;;;;;-2.61;81.69;100884.94;1684964;80;21360;-77
2021/03/02 05:55:31;;;;;;;22.90;9.55;;;;;;;-2.45;81.79;100901.05;1738696;78;22513;31
2021/03/02 06:05:22;;;;;;;31.35;12.82;;;;;;;-2.35;82.50;100908.41;1694824;82;21146;-82
2021/03/02 06:07:50;;;;;;;31.20;11.90;;;;;;;-2.27;84.44;100911.39;1711028;83;21267;-82
2021/03/02 06:13:29;;;;;;;33.65;12.68;;;;;;;-2.16;81.02;100910.73;1754345;78;21157;-78
2021/03/02 06:16:00;;;;;;;33.18;14.45;;;;;;;-2.07;81.31;100912.49;1752181;80;21314;-83
2021/03/02 06:25:35;;;;;;;50.05;20.75;;;;;;;-1.84;80.48;100901.87;1728725;78;21188;-85
2021/03/02 06:28:37;;;;;;;35.90;14.60;;;;;;;-1.75;80.70;100904.06;1763326;79;21331;31
2021/03/02 06:37:45;;;;;;;37.03;15.38;;;;;;;-1.69;82.66;100904.38;1749803;79;21122;31
2021/03/02 06:46:30;;;;;;;32.33;13.30;;;;;;;-1.48;81.81;100907.17;1704820;79;22947;-80
2021/03/02 06:49:42;;;;;;;31.95;11.63;;;;;;;-1.39;82.40;100906.80;1703528;78;22529;31
2021/03/02 07:34:52;;;;;;;26.05;10.05;;;;;;;-0.05;79.51;100917.20;1589062;85;21218;-84
2021/03/02 07:48:00;;;;;;;22.40;9.78;;;;;;;0.44;78.50;100929.70;1526463;88;22630;-79
2021/03/02 07:58:24;;;;;;;18.37;8.58;;;;;;;0.85;77.96;100908.88;1628270;83;21424;31
2021/03/02 08:28:28;;;;;;;17.92;6.70;;;;;;;2.32;72.64;100877.13;1727980;80;21201;-81
2021/03/02 08:38:28;;;;;;;23.27;7.85;;;;;;;2.81;71.60;100867.75;1716161;80;21324;-84
2021/03/02 08:40:57;;;;;;;21.97;8.95;;;;;;;2.96;71.35;100865.30;1761161;81;21201;-88
2021/03/02 08:43:26;;;;;;;15.83;6.80;;;;;;;3.08;72.14;100861.38;1735230;80;21324;-90
2021/03/02 08:49:26;;;;;;;;;;;;;;;3.30;69.18;100863.85;1702440;82;21233;-90
2021/03/02 08:52:40;;;;;;;14.13;6.55;;;;;;;3.46;69.30;100859.18;1695512;82;20186;-89
2021/03/02 08:55:40;;;;;;;20.15;7.92;;;;;;;3.55;68.64;100853.92;1679835;83;21351;-83
2021/03/02 08:58:38;;;;;;;16.70;7.08;;;;;;;3.76;69.49;100858.88;1743898;78;21199;-89
2021/03/02 09:08:13;;;;;;;14.68;6.08;;;;;;;4.32;65.65;100845.06;1611884;85;21214;-90
2021/03/02 09:11:03;;;;;;;14.18;5.95;;;;;;;4.19;65.98;100791.05;1686466;78;21356;31
2021/03/02 09:20:17;;;;;;;13.48;5.87;;;;;;;4.98;65.20;100840.39;1782085;78;21148;-92
2021/03/02 09:23:01;;;;;;;;;;;;;;;5.12;62.49;100836.87;1772100;79;21248;-87
2021/03/02 09:29:09;;;;;;;18.73;6.58;;;;;;;5.42;61.92;100821.69;1666920;84;21185;-90
2021/03/02 09:31:49;;;;;;;15.65;6.42;;;;;;;5.63;62.85;100812.26;1662941;81;21285;-87
2021/03/02 09:34:45;;;;;;;15.60;6.17;;;;;;;5.84;61.70;100816.61;1643911;85;21620;-84
2021/03/02 09:37:21;;;;;;;9.73;4.85;;;;;;;6.05;59.39;100804.62;1664712;85;21316;-93
2021/03/02 09:40:23;;;;;;;12.13;4.70;;;;;;;6.22;60.52;100798.92;1661227;82;21229;-84
2021/03/02 09:43:12;;;;;;;14.50;4.60;;;;;;;6.35;56.16;100791.88;1679459;81;21130;-85
2021/03/02 09:50:41;;;;;;;8.73;4.03;;;;;;;6.82;57.02;100799.59;1670833;84;21188;-92
2021/03/02 09:53:36;;;;;;;;;;;;;;;7.08;53.38;100804.34;1702177;79;21176;-92
2021/03/02 09:59:47;;;;;;;11.43;4.33;;;;;;;7.44;52.07;100795.42;1717995;81;21327;-93
2021/03/02 10:02:15;;;;;;;15.23;4.97;;;;;;;7.66;49.97;100788.43;1693481;82;21323;-93
2021/03/02 10:04:43;;;;;;;9.50;4.45;;;;;;;7.81;49.39;100781.72;1702561;83;21282;-93
2021/03/02 10:07:22;;;;;;;12.40;4.00;;;;;;;7.91;51.93;100778.39;1655856;86;21213;-94
2021/03/02 10:09:50;;;;;;;12.28;4.45;;;;;;;8.08;49.96;100785.09;1664395;84;21641;-88
2021/03/02 10:12:19;;;;;;;7.60;3.90;;;;;;;8.22;51.19;100775.75;1655820;86;21208;-91
2021/03/02 10:14:47;;;;;;;12.73;4.45;;;;;;;8.34;48.28;100775.88;1663727;85;21225;-93
2021/03/02 10:17:14;;;;;;;10.78;4.28;;;;;;;8.50;51.00;100778.68;1640529;86;21201;-92
2021/03/02 10:23:15;;;;;;;9.65;3.83;;;;;;;8.76;47.48;100773.30;1715991;82;21207;-89
2021/03/02 10:25:55;;;;;;;7.40;3.77;;;;;;;8.93;47.71;100764.39;1691457;83;21266;-90
2021/03/02 10:32:10;;;;;;;19.25;4.22;;;;;;;9.22;49.57;100749.90;1721678;82;21153;-90
2021/03/02 10:35:22;;;;;;;10.28;4.15;;;;;;;9.46;46.14;100754.38;1726459;80;21114;-86
2021/03/02 10:38:46;;;;;;;11.25;4.40;;;;;;;9.58;48.53;100743.20;1703200;80;21118;-85
2021/03/02 10:45:41;;;;;;;9.40;3.60;;;;;;;9.91;46.63;100737.30;1736552;80;21312;-85
2021/03/02 10:51:52;;;;;;;8.60;4.22;;;;;;;10.28;47.31;100720.49;1717759;78;21146;-91
2021/03/02 10:54:36;;;;;;;13.85;5.12;;;;;;;10.49;45.57;100717.11;1739314;79;21082;-86
2021/03/02 10:57:38;;;;;;;16.85;4.47;;;;;;;10.67;46.06;100707.16;1713744;78;22072;-89
2021/03/02 11:00:07;;;;;;;15.72;5.20;;;;;;;10.87;44.88;100711.91;1784462;78;21299;-85
2021/03/02 11:02:35;;;;;;;9.23;4.22;;;;;;;10.99;44.30;100713.64;1766166;79;21438;-89
2021/03/02 11:05:29;;;;;;;7.83;4.15;;;;;;;11.09;43.43;100702.78;1726557;78;21628;-90
2021/03/02 11:07:56;;;;;;;14.05;4.40;;;;;;;11.22;40.85;100699.72;1681697;84;21612;-90
2021/03/02 11:10:25;;;;;;;7.53;3.87;;;;;;;11.40;42.69;100698.80;1692376;84;21285;-87
2021/03/02 11:12:58;;;;;;;8.00;3.45;;;;;;;11.51;40.23;100700.95;1697747;83;21435;-83
2021/03/02 11:15:26;;;;;;;8.60;4.17;;;;;;;11.57;40.45;100700.06;1683990;83;21186;-88
2021/03/02 11:17:54;;;;;;;10.13;4.00;;;;;;;11.64;41.61;100696.13;1686128;83;21194;-84
2021/03/02 11:20:25;;;;;;;7.47;3.47;;;;;;;11.76;42.28;100696.52;1695553;82;21293;-84
2021/03/02 11:23:04;;;;;;;11.00;3.75;;;;;;;11.84;41.66;100695.19;1679364;83;21166;-84
2021/03/02 11:25:34;;;;;;;18.48;3.83;;;;;;;11.95;40.71;100689.50;1710132;83;21265;-83
2021/03/02 11:28:07;;;;;;;11.33;4.00;;;;;;;12.02;39.46;100692.52;1666077;85;21335;-82
2021/03/02 11:30:38;;;;;;;7.47;3.67;;;;;;;12.18;40.84;100686.77;1693275;85;21159;-82
2021/03/02 11:33:12;;;;;;;8.05;3.67;;;;;;;12.21;40.38;100682.82;1682099;85;21348;-84
2021/03/02 11:35:45;;;;;;;14.43;4.22;;;;;;;12.40;40.05;100667.93;1646758;86;21116;-84
2021/03/02 11:38:33;;;;;;;10.58;3.90;;;;;;;12.63;40.46;100666.88;1692383;83;21284;-83
2021/03/02 11:41:03;;;;;;;10.70;3.92;;;;;;;12.70;38.70;100654.21;1669964;85;21211;-84
2021/03/02 11:43:31;;;;;;;8.35;3.90;;;;;;;12.79;38.87;100658.47;1676813;83;21602;-85
2021/03/02 11:45:59;;;;;;;9.23;3.85;;;;;;;12.93;39.65;100644.84;1692839;85;21341;-83
2021/03/02 11:48:28;;;;;;;10.10;3.77;;;;;;;13.00;36.67;100651.74;1693476;85;21993;-83
2021/03/02 11:50:58;;;;;;;8.10;3.62;;;;;;;13.31;37.75;100648.39;1695018;84;21333;-82
2021/03/02 11:53:27;;;;;;;11.05;3.90;;;;;;;13.78;35.20;100650.44;1692484;85;21202;-83
2021/03/02 11:55:56;;;;;;;11.75;4.12;;;;;;;14.27;35.57;100649.73;1692459;85;21325;-85
2021/03/02 11:58:24;;;;;;;12.50;4.20;;;;;;;14.94;36.77;100631.17;1684108;84;21189;-83
2021/03/02 12:00:52;;;;;;;7.33;3.30;;;;;;;15.59;34.21;100643.41;1685008;83;21286;-84
2021/03/02 12:03:23;;;;;;;12.37;4.17;;;;;;;15.94;31.34;100647.08;1677479;85;21281;-85
2021/03/02 12:05:52;;;;;;;13.03;4.17;;;;;;;16.50;32.58;100641.38;1688665;84;21178;-85
2021/03/02 12:08:22;;;;;;;7.72;3.95;;;;;;;17.24;35.21;100648.67;1715961;82;21245;-85
2021/03/02 12:10:51;;;;;;;10.43;4.08;;;;;;;17.55;29.79;100639.46;1687010;84;21285;-86
2021/03/02 12:13:22;;;;;;;7.70;3.90;;;;;;;18.27;31.38;100633.78;1688594;83;21333;-84
2021/03/02 12:15:52;;;;;;;8.05;4.37;;;;;;;18.03;26.87;100638.91;1698774;83;21263;-85
2021/03/02 12:18:21;;;;;;;8.88;4.10;;;;;;;18.37;27.24;100627.30;1711782;82;21178;-83
2021/03/02 12:20:49;;;;;;;12.13;4.08;;;;;;;18.85;31.00;100627.89;1737969;82;21163;-84
2021/03/02 12:23:18;;;;;;;8.63;3.90;;;;;;;19.22;29.37;100622.63;1712208;82;21150;-84
2021/03/02 12:25:46;;;;;;;9.83;3.80;;;;;;;19.36;27.72;100621.23;1682486;84;21312;-84
2021/03/02 12:28:15;;;;;;;8.05;3.60;;;;;;;19.75;29.13;100616.73;1688710;84;21321;-84
2021/03/02 12:30:43;;;;;;;11.53;4.25;;;;;;;19.90;29.39;100612.18;1692569;84;21308;-85
2021/03/02 12:33:11;;;;;;;11.15;4.30;;;;;;;20.35;26.51;100613.01;1712628;83;21717;-84
2021/03/02 12:35:40;;;;;;;12.93;4.10;;;;;;;20.29;25.41;100619.40;1710841;82;21328;-83
2021/03/02 12:38:07;;;;;;;8.13;3.98;;;;;;;20.24;24.05;100610.35;1704186;84;21267;-86
2021/03/02 12:40:35;;;;;;;7.92;3.75;;;;;;;20.56;26.72;100609.47;1710628;83;21354;-85
2021/03/02 12:43:03;;;;;;;10.03;3.85;;;;;;;20.84;24.39;100609.64;1710147;83;21315;-85
2021/03/02 12:45:31;;;;;;;8.65;4.00;;;;;;;20.99;25.29;100604.13;1701105;83;21343;-85
2021/03/02 12:48:00;;;;;;;12.90;4.67;;;;;;;20.75;22.27;100602.98;1712310;83;21188;-85
2021/03/02 12:50:28;;;;;;;7.75;4.17;;;;;;;21.33;22.92;100597.31;1707330;83;21338;-86
2021/03/02 12:52:56;;;;;;;9.50;4.30;;;;;;;21.62;25.80;100594.69;1710194;83;21307;-85
2021/03/02 12:55:24;;;;;;;14.53;4.17;;;;;;;21.35;24.95;100594.17;1711372;83;21365;-86
2021/03/02 12:57:52;;;;;;;12.23;4.47;;;;;;;21.17;21.92;100597.16;1673179;85;21191;-85
2021/03/02 13:00:21;;;;;;;12.03;4.17;;;;;;;21.54;23.31;100589.75;1704471;82;21194;-85
2021/03/02 13:02:50;;;;;;;13.68;4.47;;;;;;;21.57;22.08;100583.48;1705200;84;21194;-85
2021/03/02 13:05:19;;;;;;;11.45;3.95;;;;;;;22.00;23.98;100584.04;1713579;81;21343;-87
2021/03/02 13:07:52;;;;;;;10.28;4.42;;;;;;;21.99;23.83;100577.90;1633487;85;21205;-87
2021/03/02 13:10:22;;;;;;;8.53;3.67;;;;;;;21.53;21.85;100582.75;1692519;83;21419;-87
2021/03/02 13:12:53;;;;;;;11.57;4.37;;;;;;;21.46;22.49;100576.02;1668832;84;21272;-86
2021/03/02 13:15:25;;;;;;;22.30;4.47;;;;;;;21.98;21.28;100576.17;1669772;85;21276;-87
2021/03/02 13:18:01;;;;;;;8.13;4.22;;;;;;;22.14;21.59;100571.45;1670451;84;21130;-85
2021/03/02 13:20:30;;;;;;;10.78;4.60;;;;;;;22.56;22.26;100569.80;1687651;83;21181;-86
2021/03/02 13:22:59;;;;;;;19.98;4.95;;;;;;;22.76;21.05;100569.20;1685590;84;21164;-86
2021/03/02 13:25:28;;;;;;;10.03;4.10;;;;;;;22.17;21.62;100566.02;1664607;84;21323;-87
2021/03/02 13:27:59;;;;;;;12.80;4.17;;;;;;;22.33;20.52;100559.03;1684495;83;21346;-85
2021/03/02 13:30:30;;;;;;;8.68;3.62;;;;;;;21.83;20.72;100559.73;1691980;83;21276;-87
2021/03/02 13:33:07;;;;;;;17.65;5.00;;;;;;;22.07;23.15;100558.14;1695889;82;21194;-86
2021/03/02 13:35:38;;;;;;;12.73;4.42;;;;;;;22.07;22.90;100560.31;1682956;84;21492;-87
2021/03/02 13:38:09;;;;;;;9.88;4.28;;;;;;;22.18;21.04;100557.11;1692928;83;21314;-86
2021/03/02 13:40:37;;;;;;;10.63;3.80;;;;;;;22.35;20.64;100558.48;1692942;83;21167;-86
2021/03/02 13:43:07;;;;;;;12.85;4.72;;;;;;;22.08;21.44;100545.27;1690956;85;21181;-87
2021/03/02 13:45:35;;;;;;;10.98;4.15;;;;;;;22.34;20.85;100546.19;1679020;85;21300;-87
2021/03/02 13:48:04;;;;;;;9.85;4.78;;;;;;;22.18;21.30;100546.52;1689465;83;21164;-86
2021/03/02 13:50:32;;;;;;;13.40;4.80;;;;;;;21.91;19.77;100540.35;1679546;85;21296;-85
2021/03/02 13:53:04;;;;;;;9.70;4.47;;;;;;;22.49;20.81;100535.73;1673802;84;21201;-85
2021/03/02 13:55:33;;;;;;;11.05;4.65;;;;;;;22.29;21.73;100533.63;1690232;84;21194;-86
2021/03/02 13:58:04;;;;;;;11.28;4.10;;;;;;;22.02;20.67;100542.02;1668344;84;21293;-85
2021/03/02 14:00:33;;;;;;;11.45;4.40;;;;;;;21.70;19.96;100537.42;1701435;83;21311;-85
2021/03/02 14:03:02;;;;;;;9.00;4.40;;;;;;;21.80;21.69;100534.72;1671255;84;21207;-85
2021/03/02 14:05:31;;;;;;;8.18;4.42;;;;;;;21.96;20.01;100543.61;1704174;83;21335;-85
2021/03/02 14:08:08;;;;;;;7.28;4.00;;;;;;;22.65;21.44;100540.62;1715563;82;21354;-86
2021/03/02 14:10:37;;;;;;;10.43;4.40;;;;;;;21.97;21.27;100532.10;1721677;82;21796;-86
2021/03/02 14:13:09;;;;;;;11.78;4.42;;;;;;;21.77;20.92;100541.02;1715477;83;21475;-86
2021/03/02 14:15:38;;;;;;;9.50;4.80;;;;;;;22.03;21.60;100538.89;1723045;82;21193;-86
2021/03/02 14:18:08;;;;;;;13.50;5.12;;;;;;;21.80;21.07;100528.09;1715572;82;21245;-86
2021/03/02 14:20:37;;;;;;;15.28;5.05;;;;;;;21.97;21.56;100532.10;1715827;82;21190;-86
2021/03/02 14:23:07;;;;;;;10.32;5.53;;;;;;;21.90;20.31;100528.51;1720976;83;21173;-87
2021/03/02 14:25:36;;;;;;;16.23;5.85;;;;;;;21.58;21.74;100526.48;1729016;83;21245;-86
2021/03/02 14:28:05;;;;;;;12.05;5.30;;;;;;;21.18;20.67;100523.05;1714351;83;21342;-85
2021/03/02 14:30:34;;;;;;;14.45;5.50;;;;;;;21.82;22.29;100527.55;1720305;83;21239;-86
2021/03/02 14:33:07;;;;;;;16.87;5.50;;;;;;;21.02;20.98;100523.37;1702585;83;21261;-87
2021/03/02 14:35:37;;;;;;;13.55;5.12;;;;;;;20.88;22.48;100525.78;1686961;83;21692;-87
2021/03/02 14:38:06;;;;;;;14.18;4.95;;;;;;;20.09;22.69;100533.56;1703991;83;21332;-87
2021/03/02 14:40:35;;;;;;;20.88;6.78;;;;;;;19.17;23.76;100536.72;1718838;83;21188;-86
2021/03/02 14:43:07;;;;;;;19.15;6.30;;;;;;;18.77;24.09;100539.47;1682204;85;21195;-86
2021/03/02 14:45:43;;;;;;;26.50;6.28;;;;;;;18.03;25.03;100541.55;1669121;84;21191;-85
2021/03/02 14:48:23;;;;;;;11.70;5.55;;;;;;;17.28;25.93;100542.08;1676605;84;21295;-86
2021/03/02 14:51:00;;;;;;;10.75;5.50;;;;;;;16.72;26.66;100539.74;1721876;83;21166;-87
2021/03/02 14:53:30;;;;;;;15.95;6.92;;;;;;;16.09;28.46;100540.48;1716337;83;21174;-86
2021/03/02 14:56:04;;;;;;;15.70;6.80;;;;;;;15.97;28.05;100538.59;1721560;83;21305;-86
2021/03/02 14:58:40;;;;;;;17.50;7.00;;;;;;;15.72;28.10;100543.09;1704871;83;21288;-86
2021/03/02 15:01:08;;;;;;;23.27;7.30;;;;;;;14.96;30.62;100545.16;1691460;84;21237;-85
2021/03/02 15:03:45;;;;;;;17.80;6.75;;;;;;;14.99;29.51;100538.99;1715326;83;21314;-85
2021/03/02 15:06:19;;;;;;;17.85;6.45;;;;;;;14.79;30.90;100536.31;1723455;81;21282;-85
2021/03/02 15:08:47;;;;;;;16.10;6.90;;;;;;;14.62;30.58;100536.66;1682052;84;21208;-85
2021/03/02 15:11:19;;;;;;;15.08;6.90;;;;;;;14.72;30.63;100537.31;1725219;82;21298;-86
2021/03/02 15:13:50;;;;;;;19.30;6.60;;;;;;;14.70;31.06;100535.17;1734004;82;21277;-86
2021/03/02 15:16:22;;;;;;;20.35;7.60;;;;;;;14.53;31.97;100537.63;1725513;83;21197;-84
2021/03/02 15:18:51;;;;;;;19.73;7.90;;;;;;;14.58;31.82;100528.41;1678232;85;21170;-84
2021/03/02 15:21:20;;;;;;;15.80;8.35;;;;;;;14.31;32.82;100528.45;1705153;84;21280;-84
2021/03/02 15:23:51;;;;;;;20.60;7.75;;;;;;;14.23;33.07;100526.42;1682267;85;21293;-86
2021/03/02 15:26:26;;;;;;;17.17;7.03;;;;;;;14.29;33.22;100526.31;1720913;82;21451;-85
2021/03/02 15:28:57;;;;;;;17.87;6.15;;;;;;;14.25;33.38;100525.50;1681184;84;21305;-86
2021/03/02 15:31:29;;;;;;;15.23;5.45;;;;;;;14.19;33.41;100522.14;1700936;82;21185;-84
2021/03/02 15:34:00;;;;;;;15.70;5.53;;;;;;;14.11;33.05;100526.19;1671687;83;21230;-86
2021/03/02 15:36:32;;;;;;;14.90;5.55;;;;;;;13.72;34.55;100533.31;1678161;84;21174;-88
2021/03/02 15:38:59;;;;;;;15.75;5.65;;;;;;;13.63;34.07;100519.55;1674200;83;21178;-89
2021/03/02 15:41:27;;;;;;;12.43;5.90;;;;;;;13.38;35.26;100523.80;1704603;82;21349;-85
2021/03/02 15:43:55;;;;;;;18.90;6.30;;;;;;;13.22;34.15;100523.11;1711620;81;21168;-82
2021/03/02 15:46:23;;;;;;;14.20;7.22;;;;;;;13.06;33.99;100526.80;1715039;82;21170;-87
2021/03/02 15:48:50;;;;;;;15.13;6.83;;;;;;;12.73;35.88;100527.19;1701080;83;21186;-87
2021/03/02 15:51:20;;;;;;;12.13;6.22;;;;;;;12.56;35.25;100534.77;1707742;82;21146;-84
2021/03/02 15:53:57;;;;;;;13.03;5.65;;;;;;;12.31;36.51;100532.37;1699891;83;21111;-86
2021/03/02 15:56:32;;;;;;;23.18;5.85;;;;;;;12.08;37.85;100535.20;1689274;84;21135;-84
2021/03/02 15:59:08;;;;;;;14.13;5.95;;;;;;;11.90;36.14;100536.22;1720323;82;21360;-85
2021/03/02 16:02:27;;;;;;;21.37;7.30;;;;;;;11.67;37.57;100533.28;1679435;84;21288;-85
2021/03/02 16:05:23;;;;;;;18.67;7.22;;;;;;;11.51;37.26;100531.66;1718833;81;21295;-84
2021/03/02 16:07:59;;;;;;;21.02;7.28;;;;;;;11.21;41.01;100539.20;1697628;81;21181;-85
2021/03/02 16:10:47;;;;;;;18.57;6.80;;;;;;;11.04;38.82;100530.15;1699082;82;21293;-85
2021/03/02 16:13:48;;;;;;;16.50;6.53;;;;;;;10.81;42.50;100533.70;1652952;83;21123;-86
2021/03/02 16:16:45;;;;;;;17.27;6.72;;;;;;;10.67;39.05;100534.19;1665732;84;21239;-85
2021/03/02 16:19:26;;;;;;;39.42;8.65;;;;;;;10.45;40.53;100531.63;1650705;85;21127;-84
2021/03/02 16:22:06;;;;;;;28.02;8.45;;;;;;;10.28;40.86;100534.64;1655704;85;21241;-84
2021/03/02 16:24:46;;;;;;;16.57;7.30;;;;;;;10.14;43.57;100538.55;1671265;84;21197;-84
2021/03/02 16:27:30;;;;;;;33.02;8.75;;;;;;;10.02;41.07;100547.64;1697782;84;21135;-83
2021/03/02 16:30:05;;;;;;;21.45;9.50;;;;;;;9.87;42.03;100545.92;1681647;82;21295;-84
2021/03/02 16:33:26;;;;;;;31.15;11.05;;;;;;;9.74;41.29;100545.87;1691819;81;21142;-85
2021/03/02 16:36:15;;;;;;;44.33;15.10;;;;;;;9.58;42.53;100554.51;1753779;80;21288;-91
2021/03/02 16:38:44;;;;;;;38.23;16.48;;;;;;;9.49;42.73;100559.67;1698000;83;21210;-90
2021/03/02 16:41:12;;;;;;;38.40;14.68;;;;;;;9.39;42.49;100561.39;1668320;85;21178;-87
2021/03/02 16:43:54;;;;;;;49.67;20.25;;;;;;;9.29;43.84;100564.39;1663157;85;21215;-90
2021/03/02 16:46:40;;;;;;;39.92;16.60;;;;;;;9.23;44.83;100566.97;1649725;81;21210;-89
2021/03/02 16:49:37;;;;;;;28.10;11.40;;;;;;;9.13;42.97;100563.46;1749888;80;21180;-90
2021/03/02 16:52:24;;;;;;;26.02;9.53;;;;;;;9.02;48.03;100572.91;1754476;80;21174;-89
2021/03/02 16:55:16;;;;;;;26.95;9.28;;;;;;;8.94;46.23;100578.05;1641897;86;21162;-89
2021/03/02 16:59:01;;;;;;;23.55;9.60;;;;;;;8.81;47.10;100579.27;1685740;83;21323;-87
2021/03/02 17:01:56;;;;;;;32.03;11.90;;;;;;;8.65;49.77;100581.77;1632399;86;21195;-90
2021/03/02 17:04:54;;;;;;;25.32;11.18;;;;;;;8.47;49.81;100590.28;1639400;86;21197;-90
2021/03/02 17:07:38;;;;;;;26.85;11.28;;;;;;;8.38;48.76;100589.34;1704167;82;21181;-92
2021/03/02 17:10:34;;;;;;;25.75;11.08;;;;;;;8.25;50.63;100587.06;1700858;84;21184;-92
2021/03/02 17:13:33;;;;;;;29.35;11.65;;;;;;;8.14;50.78;100591.73;1711680;82;21644;-88
2021/03/02 17:16:09;;;;;;;36.93;12.30;;;;;;;8.00;51.62;100592.03;1733661;81;22264;-87
2021/03/02 17:19:04;;;;;;;;;;;;;;;7.88;49.64;100598.40;1745323;80;21177;-85
2021/03/02 17:21:38;;;;;;;26.65;11.78;;;;;;;7.79;49.36;100601.74;1672846;81;20312;-88
2021/03/02 17:24:09;;;;;;;22.45;10.28;;;;;;;7.68;48.09;100599.05;1696566;81;21158;-83
2021/03/02 17:26:59;;;;;;;27.13;11.15;;;;;;;7.57;53.05;100599.35;1703430;80;21238;-84
2021/03/02 17:29:47;;;;;;;32.83;12.55;;;;;;;7.49;49.34;100605.73;1732022;80;21161;-89
2021/03/02 17:32:15;;;;;;;26.87;9.65;;;;;;;7.38;53.47;100600.84;1744966;80;21173;-85
2021/03/02 17:34:43;;;;;;;23.65;9.93;;;;;;;7.30;52.58;100595.60;1761783;80;21177;-87
2021/03/02 17:37:11;;;;;;;29.27;9.85;;;;;;;7.24;53.87;100602.40;1755550;80;21208;-87
2021/03/02 17:39:39;;;;;;;24.07;9.63;;;;;;;7.16;53.39;100605.77;1752404;80;21169;-87
2021/03/02 17:42:07;;;;;;;30.20;10.58;;;;;;;7.12;51.57;100605.30;1743995;80;21168;-85
2021/03/02 17:44:35;;;;;;;25.75;10.38;;;;;;;7.03;54.90;100606.45;1760709;80;21172;-88
2021/03/02 17:47:17;;;;;;;29.98;9.40;;;;;;;6.97;54.85;100603.36;1769945;79;21342;-84
2021/03/02 17:49:45;;;;;;;22.22;8.83;;;;;;;6.94;55.37;100610.19;1764308;78;21298;-92
2021/03/02 17:52:41;;;;;;;21.42;9.70;;;;;;;6.90;54.94;100601.55;1743928;81;21752;-91
2021/03/02 17:55:21;;;;;;;24.90;9.83;;;;;;;6.88;53.67;100607.52;1792256;78;21182;-86
2021/03/02 17:57:49;;;;;;;31.77;10.53;;;;;;;6.81;54.55;100610.89;1771901;80;21152;-91
2021/03/02 18:00:18;;;;;;;27.50;10.40;;;;;;;6.72;56.04;100606.44;1792630;78;22016;-88
2021/03/02 18:02:46;;;;;;;28.85;11.88;;;;;;;6.68;55.29;100617.58;1784679;78;21303;-86
2021/03/02 18:05:16;;;;;;;24.98;10.88;;;;;;;6.66;55.09;100612.80;1750989;81;21169;-85
2021/03/02 18:07:44;;;;;;;24.55;9.88;;;;;;;6.65;55.11;100616.25;1703464;79;21241;-93
2021/03/02 18:10:13;;;;;;;22.22;9.23;;;;;;;6.63;56.02;100620.53;1716616;77;21191;-91
2021/03/02 18:12:41;;;;;;;21.30;9.58;;;;;;;6.62;55.20;100619.64;1730347;82;21689;-93
2021/03/02 18:15:10;;;;;;;24.30;9.35;;;;;;;6.58;57.15;100624.31;1721641;82;21171;-92
2021/03/02 18:17:38;;;;;;;32.53;10.38;;;;;;;6.56;56.36;100626.00;1730040;82;21155;-93
2021/03/02 18:20:27;;;;;;;21.20;9.50;;;;;;;6.52;54.62;100621.20;1689296;84;21938;-93
2021/03/02 18:22:55;;;;;;;30.05;11.00;;;;;;;6.45;57.09;100621.11;1676474;84;21303;-93
2021/03/02 18:25:24;;;;;;;25.50;10.50;;;;;;;6.39;58.08;100623.17;1672046;84;21309;-92
2021/03/02 18:28:02;;;;;;;21.77;9.30;;;;;;;6.38;57.32;100625.29;1679639;84;21411;-92
2021/03/02 18:31:01;;;;;;;27.35;9.23;;;;;;;6.34;56.32;100619.63;1600290;87;21234;-91
2021/03/02 18:33:43;;;;;;;21.87;9.28;;;;;;;6.30;55.00;100622.58;1723845;82;21325;-91
2021/03/02 18:36:11;;;;;;;20.82;8.55;;;;;;;6.29;58.37;100625.16;1751440;81;21296;-92
2021/03/02 18:38:40;;;;;;;20.05;9.78;;;;;;;6.26;58.00;100620.78;1745652;81;21159;-91
2021/03/02 18:41:09;;;;;;;25.75;9.90;;;;;;;6.25;54.94;100626.81;1731514;81;21145;-91
2021/03/02 18:44:38;;;;;;;20.08;9.18;;;;;;;6.20;57.82;100622.41;1727946;81;21188;-90
2021/03/02 18:47:11;;;;;;;21.15;9.45;;;;;;;6.16;56.30;100624.06;1759098;81;21152;-88
2021/03/02 18:49:39;;;;;;;24.37;9.90;;;;;;;6.11;56.48;100627.86;1762599;80;21185;-90
2021/03/02 18:52:48;;;;;;;26.95;11.40;;;;;;;6.07;57.17;100628.66;1707264;82;21189;-92
2021/03/02 18:55:16;;;;;;;23.70;10.58;;;;;;;6.02;55.46;100630.70;1724246;81;21238;-90
2021/03/02 18:57:44;;;;;;;24.35;10.72;;;;;;;5.97;58.95;100626.75;1714121;81;21183;-89
2021/03/02 19:00:13;;;;;;;26.48;11.90;;;;;;;5.94;60.09;100631.38;1723045;81;21146;-90
2021/03/02 19:02:41;;;;;;;25.00;11.20;;;;;;;5.91;60.46;100635.65;1717053;82;21600;-89
2021/03/02 19:05:15;;;;;;;27.30;11.00;;;;;;;5.86;57.35;100636.83;1718114;82;21549;-91
2021/03/02 19:07:52;;;;;;;29.55;11.90;;;;;;;5.81;58.89;100634.60;1759668;80;21310;-90
2021/03/02 19:10:20;;;;;;;31.17;11.20;;;;;;;5.77;59.44;100632.80;1753940;81;21142;-91
2021/03/02 19:15:52;;;;;;;21.17;10.30;;;;;;;5.68;59.79;100630.90;1600611;88;21180;-89
2021/03/02 19:18:20;;;;;;;23.52;10.55;;;;;;;5.63;60.44;100624.80;1621203;86;21204;-88
2021/03/02 19:20:48;;;;;;;24.52;11.53;;;;;;;5.62;59.98;100633.36;1622600;86;21220;-88
2021/03/02 19:23:16;;;;;;;27.35;11.20;;;;;;;5.57;61.74;100629.41;1612903;87;21205;-89
2021/03/02 19:25:44;;;;;;;28.98;12.05;;;;;;;5.54;62.70;100642.66;1622223;87;21187;-88
2021/03/02 19:28:40;;;;;;;23.73;10.58;;;;;;;5.50;62.01;100643.45;1684296;83;21174;-91
2021/03/02 19:31:39;;;;;;;25.25;11.83;;;;;;;5.46;59.78;100642.94;1723192;81;21212;-90
2021/03/02 19:34:37;;;;;;;27.90;11.03;;;;;;;5.42;61.33;100652.31;1734957;79;21164;-90
2021/03/02 19:37:05;;;;;;;28.00;11.10;;;;;;;5.38;61.47;100647.50;1792950;79;21179;-90
2021/03/02 19:39:33;;;;;;;28.67;11.18;;;;;;;5.40;61.48;100650.55;1785210;79;21139;-88
2021/03/02 19:42:01;;;;;;;28.60;11.25;;;;;;;5.39;61.31;100653.52;1777084;80;21612;-91
2021/03/02 19:44:40;;;;;;;25.45;11.57;;;;;;;5.39;61.20;100648.36;1695979;83;21191;-90
2021/03/02 19:47:09;;;;;;;28.75;11.80;;;;;;;5.37;60.84;100652.23;1690133;83;21220;-88
2021/03/02 19:49:47;;;;;;;26.93;11.20;;;;;;;5.36;62.42;100658.63;1572892;90;21229;-91
2021/03/02 19:52:15;;;;;;;24.60;11.55;;;;;;;5.33;61.81;100656.88;1537523;92;21239;-88
2021/03/02 19:54:43;;;;;;;30.17;12.28;;;;;;;5.31;61.94;100652.49;1541262;91;21248;-92
2021/03/02 19:57:11;;;;;;;26.87;11.85;;;;;;;5.28;62.65;100663.63;1546113;91;21689;-90
2021/03/02 19:59:39;;;;;;;29.10;12.90;;;;;;;5.27;60.29;100658.03;1541182;90;21231;-90
2021/03/02 20:02:07;;;;;;;28.92;12.93;;;;;;;5.23;63.14;100660.48;1538008;92;21232;-90
2021/03/02 20:04:36;;;;;;;24.92;11.57;;;;;;;5.20;60.10;100663.88;1538333;92;21219;-88
2021/03/02 20:07:23;;;;;;;29.35;12.03;;;;;;;5.13;63.30;100667.15;1625123;87;21207;-91
2021/03/02 20:10:13;;;;;;;26.62;10.38;;;;;;;5.10;63.23;100670.97;1708246;83;21273;-86
2021/03/02 20:12:45;;;;;;;27.30;10.48;;;;;;;5.05;61.54;100668.69;1710472;84;21141;-85
2021/03/02 20:15:33;;;;;;;26.68;10.23;;;;;;;5.03;63.08;100665.20;1663724;86;21183;-89
2021/03/02 20:18:16;;;;;;;27.17;10.18;;;;;;;4.95;61.53;100659.48;1689165;83;22278;-81
2021/03/02 20:20:59;;;;;;;28.65;11.83;;;;;;;5.00;62.96;100662.16;1710498;83;21211;-83
2021/03/02 20:23:27;;;;;;;31.62;11.28;;;;;;;4.99;63.40;100665.55;1696062;83;21181;-86
2021/03/02 20:25:55;;;;;;;25.62;11.38;;;;;;;4.99;63.41;100666.84;1685814;83;21747;-89
2021/03/02 20:28:23;;;;;;;26.07;12.43;;;;;;;5.00;63.05;100673.75;1680938;83;21157;-89
2021/03/02 20:30:51;;;;;;;30.40;12.30;;;;;;;4.98;62.69;100671.13;1682217;83;21191;-88
2021/03/02 20:33:19;;;;;;;30.45;12.88;;;;;;;4.97;61.64;100673.66;1692296;83;21664;-88
2021/03/02 20:35:47;;;;;;;33.58;13.32;;;;;;;4.92;62.23;100678.73;1685331;83;21141;-89